Time;durP1;ratioP1;P1;durP2;ratioP2;P2;SDS_P1;SDS_P2;PMS_P1;PMS_P2;Temp;Humidity;BMP_temperature;BMP_pressure;BME280_temperature;BME280_humidity;BME280_pressure;Samples;Min_cycle;Max_cycle;Signal;HPM_P1;HPM_P2
2023/10/12 00:01:14;;;;;;;9.65;2.50;;;;;;;;;;5045697;28;21012;-77
2023/10/12 00:03:41;;;;;;;10.02;2.83;;;;;;;;;;5036324;28;20103;-76
2023/10/12 00:06:08;;;;;;;9.68;2.20;;;;;;;;;;5028708;28;20510;-77
2023/10/12 00:08:34;;;;;;;9.23;2.40;;;;;;;;;;5034080;28;20507;-76
2023/10/12 00:11:06;;;;;;;12.15;2.40;;;;;;;;;;5032721;28;20072;-75
2023/10/12 00:13:37;;;;;;;8.13;2.22;;;;;;;;;;5043389;28;20052;-77
2023/10/12 00:16:06;;;;;;;10.20;2.58;;;;;;;;;;5026620;28;20087;-77
2023/10/12 00:18:35;;;;;;;8.93;2.78;;;;;;;;;;5036516;28;20037;-77
2023/10/12 00:21:14;;;;;;;6.53;2.22;;;;;;;;;;5036429;28;20073;-77
2023/10/12 00:23:43;;;;;;;9.25;2.03;;;;;;;;;;5026467;28;20045;-77
2023/10/12 00:26:10;;;;;;;11.70;2.33;;;;;;;;;;5029716;28;20060;-77
2023/10/12 00:28:40;;;;;;;9.75;2.45;;;;;;;;;;5035892;28;20037;-76
2023/10/12 00:31:12;;;;;;;10.93;2.47;;;;;;;;;;5034814;28;20042;-77
2023/10/12 00:33:39;;;;;;;10.82;2.63;;;;;;;;;;5026870;28;20650;-76
2023/10/12 00:36:19;;;;;;;10.73;2.50;;;;;;;;;;5035784;28;20060;-76
2023/10/12 00:38:46;;;;;;;9.23;2.45;;;;;;;;;;5050069;28;20593;-76
2023/10/12 00:41:17;;;;;;;7.85;2.25;;;;;;;;;;5014539;28;20071;-77
2023/10/12 00:43:52;;;;;;;9.18;2.63;;;;;;;;;;5027415;28;20052;-76
2023/10/12 00:51:51;;;;;;;10.57;2.40;;;;;;;;;;5044503;28;20934;-77
2023/10/12 00:54:26;;;;;;;7.68;2.47;;;;;;;;;;5016545;28;20056;-77
2023/10/12 00:56:55;;;;;;;10.52;2.67;;;;;;;;;;5032302;28;20052;-77
2023/10/12 00:59:23;;;;;;;13.75;2.88;;;;;;;;;;5024923;28;20053;-76
2023/10/12 01:01:49;;;;;;;6.10;2.35;;;;;;;;;;5017114;28;20037;-77
2023/10/12 01:04:16;;;;;;;13.25;2.63;;;;;;;;;;5026815;28;20053;-76
2023/10/12 01:06:47;;;;;;;13.07;2.45;;;;;;;;;;5024664;28;20041;-77
2023/10/12 01:09:20;;;;;;;7.07;2.30;;;;;;;;;;5025108;28;20053;-77
2023/10/12 01:11:58;;;;;;;6.47;2.42;;;;;;;;;;4997043;28;20157;-76
2023/10/12 01:14:26;;;;;;;7.70;2.50;;;;;;;;;;5021830;28;20515;-76
2023/10/12 01:19:23;;;;;;;10.15;2.30;;;;;;;;;;5022095;28;20367;-76
2023/10/12 01:21:51;;;;;;;10.45;2.50;;;;;;;;;;5027596;28;20120;-77
2023/10/12 01:24:18;;;;;;;10.07;2.65;;;;;;;;;;5005429;28;20053;-77
2023/10/12 01:26:48;;;;;;;9.05;2.50;;;;;;;;;;5004922;28;20046;-77
2023/10/12 01:29:22;;;;;;;10.18;2.75;;;;;;;;;;5004433;28;20079;-76
2023/10/12 01:31:54;;;;;;;11.98;2.63;;;;;;;;;;5023113;28;20041;-77
2023/10/12 01:34:24;;;;;;;5.20;2.35;;;;;;;;;;5014048;28;20563;-77
2023/10/12 01:36:52;;;;;;;7.30;2.33;;;;;;;;;;5020447;28;20499;-76
2023/10/12 01:39:19;;;;;;;9.57;2.35;;;;;;;;;;5022415;28;20037;-77
2023/10/12 01:41:47;;;;;;;5.40;2.30;;;;;;;;;;4985436;28;20065;-77
2023/10/12 01:44:15;;;;;;;10.52;2.47;;;;;;;;;;5020746;28;20081;-77
2023/10/12 01:46:49;;;;;;;7.40;2.47;;;;;;;;;;5017771;28;20497;-77
2023/10/12 01:49:19;;;;;;;7.75;2.60;;;;;;;;;;5004098;28;20510;-76
2023/10/12 01:51:46;;;;;;;9.30;2.70;;;;;;;;;;5019630;28;20499;-76
2023/10/12 01:54:22;;;;;;;8.55;2.42;;;;;;;;;;5023352;28;20049;-77
2023/10/12 01:56:51;;;;;;;8.82;2.65;;;;;;;;;;5020222;28;20571;-77
2023/10/12 01:59:21;;;;;;;7.32;3.08;;;;;;;;;;5017879;28;20034;-76
2023/10/12 02:02:13;;;;;;;6.57;2.58;;;;;;;;;;5010200;28;20107;-76
2023/10/12 02:04:40;;;;;;;6.72;2.63;;;;;;;;;;5018249;28;20052;-76
2023/10/12 02:07:10;;;;;;;7.75;2.47;;;;;;;;;;5005449;28;20164;-77
2023/10/12 02:09:37;;;;;;;6.25;2.35;;;;;;;;;;5002423;28;20128;-77
2023/10/12 02:12:10;;;;;;;8.02;2.83;;;;;;;;;;5013786;28;20843;-77
2023/10/12 02:14:40;;;;;;;7.93;2.80;;;;;;;;;;5007952;28;20062;-77
2023/10/12 02:17:10;;;;;;;7.70;2.50;;;;;;;;;;5007822;28;20077;-76
2023/10/12 02:19:42;;;;;;;6.93;2.20;;;;;;;;;;5013197;28;20049;-77
2023/10/12 02:22:19;;;;;;;10.30;2.13;;;;;;;;;;5027076;28;20045;-77
2023/10/12 02:25:18;;;;;;;11.52;3.13;;;;;;;;;;5029774;28;20095;-77
2023/10/12 02:27:33;;;;;;;6.88;2.17;;;;;;;;;;5031574;28;21293;-77
2023/10/12 02:30:00;;;;;;;7.63;2.70;;;;;;;;;;5029121;28;20056;-77
2023/10/12 02:32:27;;;;;;;8.10;2.38;;;;;;;;;;5028680;28;20513;-76
2023/10/12 02:34:59;;;;;;;11.18;2.38;;;;;;;;;;5034517;28;20049;-77
2023/10/12 02:37:27;;;;;;;9.00;2.13;;;;;;;;;;5036212;28;20115;-76
2023/10/12 02:39:54;;;;;;;7.75;2.13;;;;;;;;;;5033882;28;20141;-77
2023/10/12 02:42:22;;;;;;;6.20;2.40;;;;;;;;;;5045529;28;20621;-77
2023/10/12 02:47:24;;;;;;;9.05;2.30;;;;;;;;;;5044370;28;20044;-77
2023/10/12 02:50:15;;;;;;;8.90;2.63;;;;;;;;;;5016873;28;20119;-77
2023/10/12 02:52:43;;;;;;;8.70;2.60;;;;;;;;;;5022270;28;20042;-76
2023/10/12 02:57:59;;;;;;;6.65;2.70;;;;;;;;;;5013638;28;20045;-77
2023/10/12 03:00:44;;;;;;;7.20;2.65;;;;;;;;;;5006948;28;20057;-76
2023/10/12 03:06:21;;;;;;;6.53;2.42;;;;;;;;;;4924766;28;20677;-77
2023/10/12 03:09:03;;;;;;;6.47;2.50;;;;;;;;;;5022508;28;20921;-77
2023/10/12 03:11:31;;;;;;;8.85;2.47;;;;;;;;;;5025452;28;20064;-77
2023/10/12 03:14:15;;;;;;;5.53;2.40;;;;;;;;;;5040354;28;20480;-77
2023/10/12 03:16:43;;;;;;;8.68;2.50;;;;;;;;;;5033364;28;20045;-76
2023/10/12 03:19:26;;;;;;;8.90;2.45;;;;;;;;;;5029713;28;20045;-77
2023/10/12 03:21:52;;;;;;;5.97;2.30;;;;;;;;;;5025268;28;21457;-76
2023/10/12 03:24:21;;;;;;;10.35;2.72;;;;;;;;;;5025417;28;20046;-76
2023/10/12 03:27:33;;;;;;;9.40;2.60;;;;;;;;;;5027274;28;20064;-78
2023/10/12 03:29:43;;;;;;;9.77;2.65;;;;;;;;;;5016675;28;20598;-77
2023/10/12 03:32:11;;;;;;;5.25;2.08;;;;;;;;;;5034237;28;20084;-77
2023/10/12 03:37:14;;;;;;;6.28;2.50;;;;;;;;;;5036488;28;20041;-77
2023/10/12 03:45:08;;;;;;;8.45;2.80;;;;;;;;;;5014969;28;21440;-77
2023/10/12 03:48:02;;;;;;;12.13;2.85;;;;;;;;;;5010535;28;20074;-76
2023/10/12 03:50:36;;;;;;;12.98;3.45;;;;;;;;;;5034548;28;20042;-75
2023/10/12 03:53:05;;;;;;;9.85;2.97;;;;;;;;;;5013469;28;20496;-77
2023/10/12 03:55:34;;;;;;;14.63;3.15;;;;;;;;;;5028226;28;20303;-78
2023/10/12 03:58:05;;;;;;;13.48;2.95;;;;;;;;;;5010915;28;20041;-77
2023/10/12 04:00:40;;;;;;;5.20;2.50;;;;;;;;;;5029616;28;20045;-77
2023/10/12 04:03:12;;;;;;;6.75;2.53;;;;;;;;;;5037271;28;20082;-77
2023/10/12 04:05:54;;;;;;;8.23;2.78;;;;;;;;;;5026948;28;20042;-77
2023/10/12 04:18:32;;;;;;;7.28;2.58;;;;;;;;;;5043600;28;20038;-78
2023/10/12 04:21:00;;;;;;;5.60;2.28;;;;;;;;;;5025206;28;20037;-78
2023/10/12 04:26:27;;;;;;;7.05;3.22;;;;;;;;;;5040063;28;21398;-78
2023/10/12 04:28:55;;;;;;;9.10;2.60;;;;;;;;;;5017484;28;20547;-78
2023/10/12 04:36:44;;;;;;;11.82;3.42;;;;;;;;;;5019082;28;20463;-77
2023/10/12 04:41:39;;;;;;;9.90;2.72;;;;;;;;;;5043340;28;20103;-77
2023/10/12 04:44:25;;;;;;;12.23;2.80;;;;;;;;;;5025651;28;20041;-78
2023/10/12 04:46:58;;;;;;;;;;;;;;;;;;5039932;28;20096;-78
2023/10/12 04:54:49;;;;;;;9.38;2.75;;;;;;;;;;5020645;28;20041;-76
2023/10/12 04:57:16;;;;;;;8.93;2.50;;;;;;;;;;5005726;28;20132;-78
2023/10/12 05:07:27;;;;;;;13.07;3.30;;;;;;;;;;5013113;28;20060;-78
2023/10/12 05:09:54;;;;;;;13.50;3.03;;;;;;;;;;5031458;28;20049;-77
2023/10/12 05:12:24;;;;;;;7.75;2.50;;;;;;;;;;5039497;28;20034;-78
2023/10/12 05:14:55;;;;;;;11.32;2.75;;;;;;;;;;5035972;28;20080;-78
2023/10/12 05:17:22;;;;;;;8.77;2.42;;;;;;;;;;5032884;28;20046;-77
2023/10/12 05:19:52;;;;;;;11.52;2.78;;;;;;;;;;5038742;28;20103;-77
2023/10/12 05:22:22;;;;;;;6.97;3.00;;;;;;;;;;5053654;28;20064;-77
2023/10/12 05:24:48;;;;;;;9.75;2.58;;;;;;;;;;5046469;28;20049;-79
2023/10/12 05:27:24;;;;;;;5.65;2.60;;;;;;;;;;5047953;28;20136;-79
2023/10/12 05:29:59;;;;;;;;;;;;;;;;;;5047956;28;20135;-78
2023/10/12 05:32:44;;;;;;;5.82;2.50;;;;;;;;;;5058676;28;19908;-77
2023/10/12 05:35:16;;;;;;;7.55;2.60;;;;;;;;;;5050997;28;20390;-77
2023/10/12 05:37:49;;;;;;;10.68;3.08;;;;;;;;;;5044160;28;20048;-77
2023/10/12 05:40:20;;;;;;;6.82;2.80;;;;;;;;;;5022515;28;20050;-78
2023/10/12 05:42:49;;;;;;;14.52;3.08;;;;;;;;;;5045334;28;20111;-78
2023/10/12 05:45:22;;;;;;;11.95;2.95;;;;;;;;;;5029875;28;20128;-78
2023/10/12 05:47:53;;;;;;;8.68;2.70;;;;;;;;;;5038962;28;20044;-78
2023/10/12 05:50:25;;;;;;;5.72;3.17;;;;;;;;;;5026132;28;20050;-78
2023/10/12 05:52:53;;;;;;;7.90;2.83;;;;;;;;;;5038660;28;20042;-79
2023/10/12 05:55:22;;;;;;;6.47;2.50;;;;;;;;;;5030848;28;20041;-78
2023/10/12 05:57:49;;;;;;;6.75;2.97;;;;;;;;;;5030230;28;20474;-78
2023/10/12 06:03:05;;;;;;;10.00;2.88;;;;;;;;;;5029132;28;20540;-78
2023/10/12 06:05:33;;;;;;;6.13;2.65;;;;;;;;;;5034211;28;20617;-78
2023/10/12 06:08:06;;;;;;;10.25;3.28;;;;;;;;;;5028366;28;21007;-77
2023/10/12 06:10:33;;;;;;;12.30;2.80;;;;;;;;;;5028463;28;20107;-78
2023/10/12 06:13:03;;;;;;;8.05;2.90;;;;;;;;;;5039538;28;20116;-77
2023/10/12 06:15:29;;;;;;;12.23;3.28;;;;;;;;;;5030834;28;20050;-77
2023/10/12 06:17:57;;;;;;;7.32;3.03;;;;;;;;;;5029078;28;20037;-78
2023/10/12 06:20:36;;;;;;;6.38;3.58;;;;;;;;;;5033719;28;20046;-76
2023/10/12 06:23:08;;;;;;;10.18;2.97;;;;;;;;;;5031391;28;20065;-78
2023/10/12 06:25:37;;;;;;;7.95;2.78;;;;;;;;;;5044530;28;20068;-79
2023/10/12 06:28:16;;;;;;;9.45;3.00;;;;;;;;;;5028278;28;20042;-77
2023/10/12 06:30:44;;;;;;;6.43;2.80;;;;;;;;;;5041280;28;20463;-78
2023/10/12 06:33:15;;;;;;;9.98;3.17;;;;;;;;;;5037379;28;20042;-79
2023/10/12 06:36:22;;;;;;;8.48;3.00;;;;;;;;;;5037263;28;20259;-78
2023/10/12 06:46:45;;;;;;;8.48;3.28;;;;;;;;;;5027983;28;20091;-77
2023/10/12 06:49:18;;;;;;;7.15;2.97;;;;;;;;;;5030259;28;20971;-78
2023/10/12 06:51:54;;;;;;;11.10;3.08;;;;;;;;;;5011600;28;20549;-77
2023/10/12 06:54:32;;;;;;;8.85;2.95;;;;;;;;;;5011821;28;20057;-78
2023/10/12 07:02:27;;;;;;;10.68;3.47;;;;;;;;;;5027029;28;20064;-76
2023/10/12 07:04:54;;;;;;;6.68;3.05;;;;;;;;;;5039423;28;20058;-78
2023/10/12 07:07:27;;;;;;;8.20;3.50;;;;;;;;;;5018766;28;20049;-77
2023/10/12 07:09:54;;;;;;;10.95;3.53;;;;;;;;;;5031544;28;20096;-78
2023/10/12 07:12:23;;;;;;;8.35;3.83;;;;;;;;;;5038203;28;20068;-77
2023/10/12 07:14:53;;;;;;;10.40;3.10;;;;;;;;;;5037587;28;20427;-76
2023/10/12 07:17:31;;;;;;;9.07;3.60;;;;;;;;;;5035072;28;20511;-77
2023/10/12 07:19:58;;;;;;;7.78;3.33;;;;;;;;;;5038728;28;20046;-78
2023/10/12 07:22:25;;;;;;;9.35;3.03;;;;;;;;;;5023994;28;20098;-78
2023/10/12 07:24:54;;;;;;;10.00;3.40;;;;;;;;;;5040408;28;20052;-78
2023/10/12 07:27:22;;;;;;;8.85;3.53;;;;;;;;;;5038847;28;20053;-78
2023/10/12 07:30:14;;;;;;;9.88;3.55;;;;;;;;;;5050096;28;20053;-78
2023/10/12 07:32:54;;;;;;;10.02;3.25;;;;;;;;;;5049340;28;20120;-78
2023/10/12 07:35:42;;;;;;;10.55;3.78;;;;;;;;;;5016774;28;20042;-78
2023/10/12 07:38:45;;;;;;;8.15;3.40;;;;;;;;;;5035947;28;20101;-78
2023/10/12 07:41:03;;;;;;;9.13;3.40;;;;;;;;;;5028938;28;21516;-78
2023/10/12 07:43:32;;;;;;;12.45;3.50;;;;;;;;;;5039974;28;20139;-79
2023/10/12 07:46:25;;;;;;;11.30;3.42;;;;;;;;;;5036263;28;20033;-77
2023/10/12 07:48:49;;;;;;;9.27;3.47;;;;;;;;;;5035468;28;20065;-77
2023/10/12 07:51:16;;;;;;;8.57;3.33;;;;;;;;;;5037310;28;20083;-78
2023/10/12 07:53:44;;;;;;;8.57;3.83;;;;;;;;;;5033843;28;20208;-78
2023/10/12 07:56:16;;;;;;;9.15;3.63;;;;;;;;;;5035782;28;20041;-78
2023/10/12 07:58:44;;;;;;;12.27;3.45;;;;;;;;;;5040160;28;20067;-78
2023/10/12 08:03:53;;;;;;;15.10;3.97;;;;;;;;;;5031928;28;20087;-78
2023/10/12 08:06:31;;;;;;;9.73;3.50;;;;;;;;;;5037109;28;20042;-78
2023/10/12 08:09:04;;;;;;;10.98;3.35;;;;;;;;;;5033270;28;20580;-76
2023/10/12 08:11:32;;;;;;;13.02;4.38;;;;;;;;;;5042058;28;20045;-77
2023/10/12 08:14:09;;;;;;;11.25;3.88;;;;;;;;;;5038780;28;20103;-77
2023/10/12 08:16:40;;;;;;;14.43;3.58;;;;;;;;;;5038182;28;20103;-77
2023/10/12 08:19:23;;;;;;;9.02;3.33;;;;;;;;;;5039592;28;20319;-77
2023/10/12 08:21:58;;;;;;;8.55;3.70;;;;;;;;;;5045580;28;20053;-77
2023/10/12 08:24:25;;;;;;;8.70;3.65;;;;;;;;;;5032146;28;20081;-77
2023/10/12 08:26:58;;;;;;;9.35;3.85;;;;;;;;;;5041230;28;20048;-77
2023/10/12 08:32:03;;;;;;;11.50;4.53;;;;;;;;;;5037759;28;20045;-77
2023/10/12 08:39:49;;;;;;;7.32;3.38;;;;;;;;;;5033862;28;20397;-77
2023/10/12 08:44:59;;;;;;;10.45;3.42;;;;;;;;;;5048112;28;20064;-77
2023/10/12 08:49:53;;;;;;;8.57;3.72;;;;;;;;;;5034255;28;20546;-77
2023/10/12 08:52:29;;;;;;;11.40;3.47;;;;;;;;;;5039538;28;20041;-76
2023/10/12 08:55:24;;;;;;;12.80;3.47;;;;;;;;;;5023231;28;21636;-77
2023/10/12 08:58:04;;;;;;;11.20;3.25;;;;;;;;;;5041516;28;21101;-77
2023/10/12 09:03:06;;;;;;;10.45;3.45;;;;;;;;;;5026186;28;20096;-77
2023/10/12 09:05:33;;;;;;;7.78;3.45;;;;;;;;;;5049486;28;20131;-76
2023/10/12 09:10:49;;;;;;;11.48;3.67;;;;;;;;;;5033272;28;20041;-77
2023/10/12 09:13:17;;;;;;;13.48;3.78;;;;;;;;;;5031328;28;20107;-77
2023/10/12 09:15:48;;;;;;;7.47;3.70;;;;;;;;;;5031224;28;20044;-77
2023/10/12 09:18:18;;;;;;;9.45;3.83;;;;;;;;;;5028730;28;20435;-77
2023/10/12 09:21:01;;;;;;;;;;;;;;;;;;;;;
2023/10/12 09:31:14;;;;;;;8.32;3.03;;;;;;;;;;5025985;28;20045;-76
2023/10/12 09:33:54;;;;;;;12.95;4.00;;;;;;;;;;5032436;28;20045;-76
2023/10/12 09:36:22;;;;;;;9.38;3.60;;;;;;;;;;5032096;28;20103;-76
2023/10/12 09:38:49;;;;;;;8.70;3.38;;;;;;;;;;5040868;28;20455;-76
2023/10/12 09:41:17;;;;;;;9.57;3.15;;;;;;;;;;5038030;28;20041;-76
2023/10/12 09:43:47;;;;;;;9.50;3.33;;;;;;;;;;5040525;28;20045;-77
2023/10/12 09:46:14;;;;;;;9.82;3.53;;;;;;;;;;5031417;28;20132;-76
2023/10/12 09:48:44;;;;;;;11.60;3.83;;;;;;;;;;5014048;28;20137;-76
2023/10/12 09:51:17;;;;;;;9.32;3.25;;;;;;;;;;5000846;28;20132;-75
2023/10/12 09:53:53;;;;;;;9.75;3.03;;;;;;;;;;5014157;28;20093;-76
2023/10/12 09:56:28;;;;;;;7.47;2.92;;;;;;;;;;5022189;28;20099;-77
2023/10/12 09:59:07;;;;;;;6.65;3.22;;;;;;;;;;5014500;28;20064;-76
2023/10/12 10:04:28;;;;;;;10.85;3.22;;;;;;;;;;5007082;28;20496;-77
2023/10/12 10:07:15;;;;;;;;;;;;;;;;;;;;;
2023/10/12 10:09:49;;;;;;;13.90;3.53;;;;;;;;;;5018391;28;20603;-76
2023/10/12 10:12:16;;;;;;;8.85;3.13;;;;;;;;;;5009167;28;20041;-76
2023/10/12 10:14:45;;;;;;;10.35;3.63;;;;;;;;;;5010620;28;20430;-77
2023/10/12 10:17:14;;;;;;;11.18;3.25;;;;;;;;;;5012608;28;20053;-76
2023/10/12 10:19:51;;;;;;;8.88;2.78;;;;;;;;;;5009345;28;20053;-76
2023/10/12 10:22:21;;;;;;;8.27;3.10;;;;;;;;;;5006632;28;20050;-76
2023/10/12 10:24:54;;;;;;;10.65;3.35;;;;;;;;;;5004747;28;20042;-77
2023/10/12 10:27:27;;;;;;;9.52;2.80;;;;;;;;;;5022968;28;20638;-77
2023/10/12 10:29:57;;;;;;;7.70;2.92;;;;;;;;;;5012353;28;20500;-77
2023/10/12 10:32:36;;;;;;;9.45;3.50;;;;;;;;;;5015736;28;20045;-77
2023/10/12 10:35:13;;;;;;;8.85;3.00;;;;;;;;;;5007798;28;20621;-77
2023/10/12 10:37:58;;;;;;;10.63;2.95;;;;;;;;;;4998570;28;20107;-77
2023/10/12 10:40:48;;;;;;;8.90;3.17;;;;;;;;;;5000268;28;20049;-77
2023/10/12 10:43:15;;;;;;;6.07;2.72;;;;;;;;;;5021150;28;20638;-77
2023/10/12 10:45:50;;;;;;;13.82;3.70;;;;;;;;;;5014114;28;20654;-77
2023/10/12 10:48:17;;;;;;;8.63;2.92;;;;;;;;;;5019358;28;20083;-77
2023/10/12 10:51:11;;;;;;;11.38;2.88;;;;;;;;;;5004416;28;21045;-77
2023/10/12 10:53:38;;;;;;;5.70;2.60;;;;;;;;;;5000230;28;20045;-76
2023/10/12 10:56:12;;;;;;;9.13;2.80;;;;;;;;;;5024477;28;20041;-77
2023/10/12 10:58:39;;;;;;;12.52;3.42;;;;;;;;;;5017752;28;20061;-77
2023/10/12 11:01:12;;;;;;;6.10;3.10;;;;;;;;;;5017474;28;20037;-76
2023/10/12 11:03:40;;;;;;;6.95;3.25;;;;;;;;;;5008903;28;20050;-77
2023/10/12 11:06:21;;;;;;;7.80;3.60;;;;;;;;;;5014494;28;21740;-76
2023/10/12 11:09:13;;;;;;;10.32;3.88;;;;;;;;;;5006638;28;20077;-77
2023/10/12 11:11:52;;;;;;;9.70;3.50;;;;;;;;;;5014937;28;20396;-76
2023/10/12 11:14:22;;;;;;;13.38;3.60;;;;;;;;;;5005544;28;20054;-77
2023/10/12 11:16:48;;;;;;;8.05;3.72;;;;;;;;;;5009615;28;20050;-77
2023/10/12 11:19:19;;;;;;;9.55;3.30;;;;;;;;;;5013778;28;20065;-77
2023/10/12 11:21:46;;;;;;;10.00;3.55;;;;;;;;;;5007602;28;20038;-77
2023/10/12 11:24:14;;;;;;;9.90;3.60;;;;;;;;;;5014175;28;20049;-76
2023/10/12 11:26:50;;;;;;;15.30;3.55;;;;;;;;;;5010559;28;20105;-76
2023/10/12 11:29:17;;;;;;;9.93;4.20;;;;;;;;;;4989385;28;20053;-77
2023/10/12 11:32:08;;;;;;;14.35;4.43;;;;;;;;;;5005944;28;20067;-77
2023/10/12 11:34:36;;;;;;;10.88;4.03;;;;;;;;;;5013819;28;20543;-76
2023/10/12 11:37:03;;;;;;;8.90;3.55;;;;;;;;;;4994972;28;20045;-76
2023/10/12 11:39:39;;;;;;;12.43;3.70;;;;;;;;;;5017707;28;20034;-76
2023/10/12 11:42:07;;;;;;;12.35;3.47;;;;;;;;;;5007098;28;20516;-76
2023/10/12 11:44:35;;;;;;;10.80;3.85;;;;;;;;;;5006963;28;20080;-76
2023/10/12 11:47:06;;;;;;;13.55;4.30;;;;;;;;;;5018755;28;20095;-76
2023/10/12 11:49:55;;;;;;;12.27;4.32;;;;;;;;;;5009806;28;20409;-76
2023/10/12 11:52:33;;;;;;;17.00;4.78;;;;;;;;;;5010292;28;21499;-77
2023/10/12 11:55:19;;;;;;;12.68;4.40;;;;;;;;;;5023860;28;20045;-76
2023/10/12 11:57:48;;;;;;;10.35;4.38;;;;;;;;;;5008545;28;20305;-77
2023/10/12 12:00:22;;;;;;;;;;;;;;;;;;;;;
2023/10/12 12:02:52;;;;;;;8.90;4.22;;;;;;;;;;5010789;28;20045;-76
2023/10/12 12:05:21;;;;;;;9.13;4.05;;;;;;;;;;5010172;28;20057;-77
2023/10/12 12:07:51;;;;;;;9.68;4.10;;;;;;;;;;5015813;28;20401;-76
2023/10/12 12:10:38;;;;;;;9.77;4.45;;;;;;;;;;5013140;28;20072;-76
2023/10/12 12:13:08;;;;;;;9.63;4.28;;;;;;;;;;5005953;28;20099;-76
2023/10/12 12:15:45;;;;;;;12.32;3.83;;;;;;;;;;5008051;28;20467;-76
2023/10/12 12:18:19;;;;;;;11.48;4.40;;;;;;;;;;5013620;28;20118;-76
2023/10/12 12:20:47;;;;;;;10.75;4.50;;;;;;;;;;5001346;28;20499;-76
2023/10/12 12:23:14;;;;;;;13.30;4.65;;;;;;;;;;4994344;28;20041;-76
2023/10/12 12:25:41;;;;;;;14.30;4.47;;;;;;;;;;5006780;28;20420;-76
2023/10/12 12:28:14;;;;;;;12.98;4.38;;;;;;;;;;5012284;28;20042;-76
2023/10/12 12:31:15;;;;;;;9.80;4.53;;;;;;;;;;5006020;28;20108;-77
2023/10/12 12:33:41;;;;;;;9.52;4.22;;;;;;;;;;5012451;28;20042;-76
2023/10/12 12:36:10;;;;;;;11.73;4.55;;;;;;;;;;5010685;28;20049;-76
2023/10/12 12:41:12;;;;;;;14.52;4.40;;;;;;;;;;5034874;28;20098;-77
2023/10/12 12:43:40;;;;;;;11.88;5.05;;;;;;;;;;5010719;28;20100;-77
2023/10/12 12:46:07;;;;;;;12.95;4.47;;;;;;;;;;5018896;28;20101;-77
2023/10/12 12:48:34;;;;;;;11.32;3.95;;;;;;;;;;4996468;28;20133;-76
2023/10/12 12:51:01;;;;;;;11.73;4.60;;;;;;;;;;5006264;28;20531;-77
2023/10/12 12:53:28;;;;;;;9.10;4.03;;;;;;;;;;5005224;28;20038;-76
2023/10/12 12:55:56;;;;;;;11.32;4.70;;;;;;;;;;5022151;28;20038;-76
2023/10/12 12:58:24;;;;;;;14.68;4.22;;;;;;;;;;5013505;28;20507;-77
2023/10/12 13:00:52;;;;;;;13.18;4.45;;;;;;;;;;5014360;28;20074;-76
2023/10/12 13:03:20;;;;;;;12.35;5.22;;;;;;;;;;5002934;28;20046;-76
2023/10/12 13:05:47;;;;;;;17.00;4.40;;;;;;;;;;5006916;28;20041;-77
2023/10/12 13:08:16;;;;;;;11.90;4.15;;;;;;;;;;5006005;28;20512;-76
2023/10/12 13:10:44;;;;;;;11.95;4.10;;;;;;;;;;5006283;28;20298;-77
2023/10/12 13:13:12;;;;;;;13.93;4.78;;;;;;;;;;5013705;28;20045;-76
2023/10/12 13:15:42;;;;;;;11.63;4.57;;;;;;;;;;5013240;28;20042;-77
2023/10/12 13:18:15;;;;;;;15.30;4.85;;;;;;;;;;5017447;28;20041;-77
2023/10/12 13:20:46;;;;;;;10.57;4.68;;;;;;;;;;5038261;28;20356;-77
2023/10/12 13:23:13;;;;;;;11.93;4.28;;;;;;;;;;5026196;28;20034;-77
2023/10/12 13:25:40;;;;;;;12.23;4.60;;;;;;;;;;5039668;28;20045;-76
2023/10/12 13:28:09;;;;;;;13.52;5.13;;;;;;;;;;5044255;28;20041;-77
2023/10/12 13:30:37;;;;;;;20.02;5.18;;;;;;;;;;5039299;28;20044;-76
2023/10/12 13:33:05;;;;;;;11.35;4.57;;;;;;;;;;5028444;28;20300;-76
2023/10/12 13:35:41;;;;;;;10.77;4.45;;;;;;;;;;5026055;28;20508;-76
2023/10/12 13:38:09;;;;;;;;;;;;;;;;;;5022695;28;20045;-76
2023/10/12 13:40:37;;;;;;;13.13;4.82;;;;;;;;;;5027881;28;20493;-74
2023/10/12 13:43:14;;;;;;;9.43;4.63;;;;;;;;;;5034665;28;20291;-74
2023/10/12 13:45:47;;;;;;;14.27;5.15;;;;;;;;;;5040364;28;20042;-75
2023/10/12 13:48:37;;;;;;;13.00;4.63;;;;;;;;;;5014076;28;20115;-74
2023/10/12 13:51:20;;;;;;;14.73;4.82;;;;;;;;;;5011037;28;20038;-75
2023/10/12 13:53:49;;;;;;;15.07;4.88;;;;;;;;;;5019133;28;20034;-80
2023/10/12 13:56:16;;;;;;;15.20;4.65;;;;;;;;;;5015093;28;20042;-74
2023/10/12 13:58:47;;;;;;;13.07;4.75;;;;;;;;;;5015441;28;20030;-74
2023/10/12 14:01:18;;;;;;;15.93;4.97;;;;;;;;;;5014291;28;20466;-76
2023/10/12 14:03:52;;;;;;;13.68;4.97;;;;;;;;;;5014180;28;20073;-76
2023/10/12 14:06:19;;;;;;;12.15;4.53;;;;;;;;;;5019438;28;21150;-74
2023/10/12 14:08:46;;;;;;;10.70;4.68;;;;;;;;;;5021987;28;20048;-76
2023/10/12 14:11:14;;;;;;;10.95;4.97;;;;;;;;;;5027818;28;20052;-74
2023/10/12 14:13:40;;;;;;;12.98;4.45;;;;;;;;;;5017751;28;20527;-74
2023/10/12 14:16:10;;;;;;;11.35;4.55;;;;;;;;;;5019743;28;20049;-75
2023/10/12 14:18:38;;;;;;;10.95;4.30;;;;;;;;;;5010739;28;20054;-75
2023/10/12 14:21:11;;;;;;;9.43;4.38;;;;;;;;;;5028561;28;20044;-75
2023/10/12 14:23:45;;;;;;;14.20;5.30;;;;;;;;;;5028545;28;20049;-75
2023/10/12 14:26:22;;;;;;;12.95;4.95;;;;;;;;;;5029173;28;20057;-75
2023/10/12 14:28:54;;;;;;;12.57;4.25;;;;;;;;;;5016374;28;20435;-75
2023/10/12 14:31:21;;;;;;;9.23;4.18;;;;;;;;;;5026903;28;20122;-75
2023/10/12 14:33:49;;;;;;;12.95;4.80;;;;;;;;;;5010309;28;20053;-75
2023/10/12 14:36:16;;;;;;;11.75;4.60;;;;;;;;;;5004416;28;20054;-76
2023/10/12 14:38:45;;;;;;;12.55;4.57;;;;;;;;;;5034936;28;20090;-76
2023/10/12 14:41:16;;;;;;;11.23;4.05;;;;;;;;;;5022961;28;20408;-76
2023/10/12 14:43:47;;;;;;;13.23;4.30;;;;;;;;;;5022263;28;20075;-76
2023/10/12 14:46:18;;;;;;;10.13;4.28;;;;;;;;;;5029726;28;20068;-76
2023/10/12 14:48:49;;;;;;;11.95;4.55;;;;;;;;;;5027493;28;20042;-75
2023/10/12 14:51:17;;;;;;;11.95;3.97;;;;;;;;;;5030646;28;20496;-75
2023/10/12 14:53:50;;;;;;;10.60;4.38;;;;;;;;;;5028942;28;20368;-74
2023/10/12 14:56:27;;;;;;;9.80;4.20;;;;;;;;;;5023376;28;20474;-76
2023/10/12 14:58:55;;;;;;;11.25;4.35;;;;;;;;;;5027990;28;20045;-76
2023/10/12 15:01:27;;;;;;;10.82;4.20;;;;;;;;;;5029231;28;20055;-76
2023/10/12 15:03:55;;;;;;;10.88;4.63;;;;;;;;;;5013874;28;24757;-75
2023/10/12 15:06:22;;;;;;;7.97;4.30;;;;;;;;;;5012136;28;20123;-75
2023/10/12 15:08:52;;;;;;;12.02;4.43;;;;;;;;;;5012720;28;20053;-75
2023/10/12 15:11:20;;;;;;;12.10;4.25;;;;;;;;;;5006572;28;20383;-75
2023/10/12 15:13:48;;;;;;;7.30;4.45;;;;;;;;;;5014241;28;20056;-75
2023/10/12 15:16:15;;;;;;;12.35;4.15;;;;;;;;;;5013878;28;20050;-75
2023/10/12 15:18:43;;;;;;;11.82;4.60;;;;;;;;;;5015491;28;20053;-76
2023/10/12 15:21:13;;;;;;;10.35;4.88;;;;;;;;;;5011258;28;20530;-76
2023/10/12 15:23:43;;;;;;;11.88;4.18;;;;;;;;;;5015135;28;20061;-75
2023/10/12 15:26:13;;;;;;;10.60;4.72;;;;;;;;;;5013238;28;20488;-75
2023/10/12 15:28:40;;;;;;;9.88;4.47;;;;;;;;;;5015675;28;20057;-76
2023/10/12 15:31:08;;;;;;;11.50;4.28;;;;;;;;;;5013115;28;20141;-75
2023/10/12 15:33:37;;;;;;;8.63;3.80;;;;;;;;;;5014321;28;20046;-74
2023/10/12 15:36:07;;;;;;;9.60;3.95;;;;;;;;;;5008017;28;20124;-75
2023/10/12 15:38:34;;;;;;;13.40;4.47;;;;;;;;;;5016393;28;20302;-74
2023/10/12 15:41:00;;;;;;;11.35;3.83;;;;;;;;;;5012212;28;20524;-76
2023/10/12 15:43:27;;;;;;;9.50;3.72;;;;;;;;;;4995734;28;20053;-75
2023/10/12 15:45:54;;;;;;;10.45;4.28;;;;;;;;;;5010212;28;20111;-74
2023/10/12 15:48:26;;;;;;;12.40;4.55;;;;;;;;;;5016103;28;20049;-73
2023/10/12 15:50:54;;;;;;;10.95;4.10;;;;;;;;;;5014692;28;20045;-75
2023/10/12 15:53:22;;;;;;;16.75;4.18;;;;;;;;;;5013695;28;20045;-76
2023/10/12 15:55:49;;;;;;;8.52;4.22;;;;;;;;;;5017441;28;20048;-75
2023/10/12 15:58:16;;;;;;;12.20;3.88;;;;;;;;;;5023013;28;20422;-75
2023/10/12 16:00:42;;;;;;;9.52;3.90;;;;;;;;;;5019928;28;20045;-75
2023/10/12 16:03:10;;;;;;;9.32;4.20;;;;;;;;;;5025023;28;20140;-75
2023/10/12 16:05:37;;;;;;;10.10;3.80;;;;;;;;;;5014771;28;20120;-74
2023/10/12 16:08:15;;;;;;;7.85;4.00;;;;;;;;;;5022819;28;20052;-75
2023/10/12 16:10:48;;;;;;;10.70;3.70;;;;;;;;;;5039447;28;20175;-76
2023/10/12 16:13:16;;;;;;;9.63;3.67;;;;;;;;;;5035777;28;20738;-76
2023/10/12 16:15:43;;;;;;;7.35;3.47;;;;;;;;;;5028524;28;20048;-74
2023/10/12 16:18:11;;;;;;;9.13;3.72;;;;;;;;;;5017306;28;20041;-76
2023/10/12 16:20:39;;;;;;;12.20;4.40;;;;;;;;;;5029869;28;20079;-74
2023/10/12 16:23:05;;;;;;;14.40;3.85;;;;;;;;;;5031724;28;20071;-76
2023/10/12 16:25:32;;;;;;;7.63;3.25;;;;;;;;;;5036245;28;20064;-75
2023/10/12 16:28:06;;;;;;;9.18;3.70;;;;;;;;;;5034818;28;20403;-75
2023/10/12 16:30:36;;;;;;;6.20;3.28;;;;;;;;;;5029214;28;20143;-74
2023/10/12 16:33:03;;;;;;;10.13;4.60;;;;;;;;;;5034340;28;20511;-75
2023/10/12 16:35:30;;;;;;;9.30;3.80;;;;;;;;;;5051219;28;20045;-75
2023/10/12 16:37:59;;;;;;;13.75;4.38;;;;;;;;;;5014389;28;20081;-75
2023/10/12 16:40:28;;;;;;;13.13;4.00;;;;;;;;;;5016538;28;21060;-75
2023/10/12 16:42:55;;;;;;;10.02;3.65;;;;;;;;;;5006305;28;20099;-74
2023/10/12 16:45:23;;;;;;;8.88;3.38;;;;;;;;;;5028156;28;20053;-75
2023/10/12 16:47:50;;;;;;;7.43;3.97;;;;;;;;;;5025926;28;20829;-75
2023/10/12 16:50:20;;;;;;;11.23;3.78;;;;;;;;;;5021630;28;20417;-76
2023/10/12 16:52:49;;;;;;;8.05;3.80;;;;;;;;;;5028647;28;20056;-76
2023/10/12 16:55:17;;;;;;;7.60;4.03;;;;;;;;;;5003410;28;20101;-74